sensor_id;sensor_type;location;lat;lon;timestamp;P1;durP1;ratioP1;P2;durP2;ratioP2
72273;SDS011;60208;48.692;8.948;2022-10-01T00:00:55;11.75;;;8.77;;
72273;SDS011;60208;48.692;8.948;2022-10-01T00:03:21;11.75;;;9.15;;
72273;SDS011;60208;48.692;8.948;2022-10-01T00:06:08;11.88;;;8.70;;
72273;SDS011;60208;48.692;8.948;2022-10-01T00:08:35;11.65;;;8.85;;
72273;SDS011;60208;48.692;8.948;2022-10-01T00:11:12;13.52;;;8.93;;
72273;SDS011;60208;48.692;8.948;2022-10-01T00:13:45;11.25;;;8.65;;
72273;SDS011;60208;48.692;8.948;2022-10-01T00:16:12;12.95;;;8.18;;
72273;SDS011;60208;48.692;8.948;2022-10-01T00:18:39;13.10;;;8.25;;
72273;SDS011;60208;48.692;8.948;2022-10-01T00:21:06;11.82;;;8.25;;
72273;SDS011;60208;48.692;8.948;2022-10-01T00:23:36;10.25;;;8.07;;
72273;SDS011;60208;48.692;8.948;2022-10-01T00:28:45;10.68;;;8.48;;
72273;SDS011;60208;48.692;8.948;2022-10-01T00:31:12;9.68;;;7.75;;
72273;SDS011;60208;48.692;8.948;2022-10-01T00:33:38;8.98;;;7.65;;
72273;SDS011;60208;48.692;8.948;2022-10-01T00:36:04;10.45;;;8.07;;
72273;SDS011;60208;48.692;8.948;2022-10-01T00:38:30;11.45;;;7.90;;
72273;SDS011;60208;48.692;8.948;2022-10-01T00:40:56;10.05;;;7.45;;
72273;SDS011;60208;48.692;8.948;2022-10-01T00:43:23;10.45;;;7.70;;
72273;SDS011;60208;48.692;8.948;2022-10-01T00:45:50;10.77;;;7.70;;
72273;SDS011;60208;48.692;8.948;2022-10-01T00:48:18;10.02;;;7.53;;
72273;SDS011;60208;48.692;8.948;2022-10-01T00:50:44;10.73;;;7.60;;
72273;SDS011;60208;48.692;8.948;2022-10-01T00:53:13;10.63;;;7.40;;
72273;SDS011;60208;48.692;8.948;2022-10-01T00:55:39;9.30;;;7.30;;
72273;SDS011;60208;48.692;8.948;2022-10-01T00:58:06;8.40;;;7.47;;
72273;SDS011;60208;48.692;8.948;2022-10-01T01:00:33;10.05;;;7.55;;
72273;SDS011;60208;48.692;8.948;2022-10-01T01:03:00;10.82;;;7.72;;
72273;SDS011;60208;48.692;8.948;2022-10-01T01:05:25;10.00;;;7.55;;
72273;SDS011;60208;48.692;8.948;2022-10-01T01:07:51;8.95;;;7.20;;
72273;SDS011;60208;48.692;8.948;2022-10-01T01:10:18;9.77;;;7.10;;
72273;SDS011;60208;48.692;8.948;2022-10-01T01:12:55;8.32;;;6.45;;
72273;SDS011;60208;48.692;8.948;2022-10-01T01:18:09;8.25;;;6.55;;
72273;SDS011;60208;48.692;8.948;2022-10-01T01:26:01;7.45;;;6.22;;
72273;SDS011;60208;48.692;8.948;2022-10-01T01:28:36;7.10;;;6.05;;
72273;SDS011;60208;48.692;8.948;2022-10-01T01:31:04;7.68;;;6.18;;
72273;SDS011;60208;48.692;8.948;2022-10-01T01:33:32;9.02;;;6.35;;
72273;SDS011;60208;48.692;8.948;2022-10-01T01:36:09;8.18;;;6.30;;
72273;SDS011;60208;48.692;8.948;2022-10-01T01:38:41;7.55;;;6.47;;
72273;SDS011;60208;48.692;8.948;2022-10-01T01:41:08;9.32;;;6.20;;
72273;SDS011;60208;48.692;8.948;2022-10-01T01:43:38;6.90;;;5.55;;
72273;SDS011;60208;48.692;8.948;2022-10-01T01:46:06;6.70;;;5.75;;
72273;SDS011;60208;48.692;8.948;2022-10-01T01:48:34;7.32;;;5.93;;
72273;SDS011;60208;48.692;8.948;2022-10-01T01:51:23;7.30;;;5.85;;
72273;SDS011;60208;48.692;8.948;2022-10-01T01:53:47;7.45;;;5.95;;
72273;SDS011;60208;48.692;8.948;2022-10-01T01:56:13;6.72;;;5.75;;
72273;SDS011;60208;48.692;8.948;2022-10-01T01:58:38;9.73;;;6.53;;
72273;SDS011;60208;48.692;8.948;2022-10-01T02:01:04;7.72;;;6.25;;
72273;SDS011;60208;48.692;8.948;2022-10-01T02:03:29;7.30;;;6.00;;
72273;SDS011;60208;48.692;8.948;2022-10-01T02:06:20;6.82;;;5.88;;
72273;SDS011;60208;48.692;8.948;2022-10-01T02:09:02;6.90;;;5.95;;
72273;SDS011;60208;48.692;8.948;2022-10-01T02:11:36;6.43;;;5.05;;
72273;SDS011;60208;48.692;8.948;2022-10-01T02:17:14;7.25;;;5.25;;
72273;SDS011;60208;48.692;8.948;2022-10-01T02:19:56;6.03;;;4.95;;
72273;SDS011;60208;48.692;8.948;2022-10-01T02:23:10;5.50;;;5.00;;
72273;SDS011;60208;48.692;8.948;2022-10-01T02:25:26;5.90;;;4.75;;
72273;SDS011;60208;48.692;8.948;2022-10-01T02:28:00;5.93;;;5.10;;
72273;SDS011;60208;48.692;8.948;2022-10-01T02:30:30;6.70;;;4.72;;
72273;SDS011;60208;48.692;8.948;2022-10-01T02:32:56;5.63;;;4.70;;
72273;SDS011;60208;48.692;8.948;2022-10-01T02:35:23;6.10;;;4.50;;
72273;SDS011;60208;48.692;8.948;2022-10-01T02:37:50;5.93;;;4.57;;
72273;SDS011;60208;48.692;8.948;2022-10-01T02:40:17;5.30;;;4.80;;
72273;SDS011;60208;48.692;8.948;2022-10-01T02:42:46;5.63;;;4.53;;
72273;SDS011;60208;48.692;8.948;2022-10-01T02:45:14;5.22;;;4.30;;
72273;SDS011;60208;48.692;8.948;2022-10-01T02:47:43;4.90;;;4.40;;
72273;SDS011;60208;48.692;8.948;2022-10-01T02:50:11;4.68;;;4.20;;
72273;SDS011;60208;48.692;8.948;2022-10-01T02:55:25;5.13;;;3.92;;
72273;SDS011;60208;48.692;8.948;2022-10-01T02:57:53;6.10;;;4.60;;
72273;SDS011;60208;48.692;8.948;2022-10-01T03:00:19;5.63;;;4.50;;
72273;SDS011;60208;48.692;8.948;2022-10-01T03:02:45;8.07;;;4.05;;
72273;SDS011;60208;48.692;8.948;2022-10-01T03:05:11;4.63;;;4.18;;
72273;SDS011;60208;48.692;8.948;2022-10-01T03:07:36;4.63;;;4.03;;
72273;SDS011;60208;48.692;8.948;2022-10-01T03:10:04;5.65;;;4.13;;
72273;SDS011;60208;48.692;8.948;2022-10-01T03:12:30;5.20;;;4.03;;
72273;SDS011;60208;48.692;8.948;2022-10-01T03:14:55;4.57;;;3.92;;
72273;SDS011;60208;48.692;8.948;2022-10-01T03:17:21;4.47;;;3.53;;
72273;SDS011;60208;48.692;8.948;2022-10-01T03:19:46;4.97;;;3.40;;
72273;SDS011;60208;48.692;8.948;2022-10-01T03:22:13;3.70;;;3.20;;
72273;SDS011;60208;48.692;8.948;2022-10-01T03:24:39;3.88;;;3.47;;
72273;SDS011;60208;48.692;8.948;2022-10-01T03:27:04;6.80;;;3.47;;
72273;SDS011;60208;48.692;8.948;2022-10-01T03:29:30;3.95;;;3.15;;
72273;SDS011;60208;48.692;8.948;2022-10-01T03:31:57;3.25;;;2.95;;
72273;SDS011;60208;48.692;8.948;2022-10-01T03:34:22;3.95;;;3.10;;
72273;SDS011;60208;48.692;8.948;2022-10-01T03:36:47;4.53;;;3.22;;
72273;SDS011;60208;48.692;8.948;2022-10-01T03:39:13;5.13;;;3.25;;
72273;SDS011;60208;48.692;8.948;2022-10-01T03:41:39;5.40;;;3.13;;
72273;SDS011;60208;48.692;8.948;2022-10-01T03:44:05;3.78;;;3.13;;
72273;SDS011;60208;48.692;8.948;2022-10-01T03:46:32;3.30;;;3.00;;
72273;SDS011;60208;48.692;8.948;2022-10-01T03:48:57;4.70;;;3.50;;
72273;SDS011;60208;48.692;8.948;2022-10-01T03:51:24;3.20;;;2.90;;
72273;SDS011;60208;48.692;8.948;2022-10-01T03:53:52;3.17;;;2.85;;
72273;SDS011;60208;48.692;8.948;2022-10-01T03:56:18;4.07;;;3.03;;
72273;SDS011;60208;48.692;8.948;2022-10-01T03:58:43;3.50;;;3.00;;
72273;SDS011;60208;48.692;8.948;2022-10-01T04:01:08;3.63;;;3.00;;
72273;SDS011;60208;48.692;8.948;2022-10-01T04:03:34;3.35;;;3.00;;
72273;SDS011;60208;48.692;8.948;2022-10-01T04:05:59;3.35;;;3.05;;
72273;SDS011;60208;48.692;8.948;2022-10-01T04:08:24;4.05;;;3.10;;
72273;SDS011;60208;48.692;8.948;2022-10-01T04:10:49;3.92;;;3.20;;
72273;SDS011;60208;48.692;8.948;2022-10-01T04:13:15;2.70;;;2.50;;
72273;SDS011;60208;48.692;8.948;2022-10-01T04:15:41;5.30;;;2.60;;
72273;SDS011;60208;48.692;8.948;2022-10-01T04:18:06;2.45;;;2.25;;
72273;SDS011;60208;48.692;8.948;2022-10-01T04:20:33;3.53;;;2.55;;
72273;SDS011;60208;48.692;8.948;2022-10-01T04:22:59;3.28;;;2.40;;
72273;SDS011;60208;48.692;8.948;2022-10-01T04:25:25;3.05;;;2.30;;
72273;SDS011;60208;48.692;8.948;2022-10-01T04:27:56;4.25;;;2.60;;
72273;SDS011;60208;48.692;8.948;2022-10-01T04:30:24;4.47;;;2.40;;
72273;SDS011;60208;48.692;8.948;2022-10-01T04:32:50;2.78;;;2.55;;
72273;SDS011;60208;48.692;8.948;2022-10-01T04:35:16;4.07;;;2.17;;
72273;SDS011;60208;48.692;8.948;2022-10-01T04:37:41;2.45;;;2.25;;
72273;SDS011;60208;48.692;8.948;2022-10-01T04:40:07;2.17;;;1.98;;
72273;SDS011;60208;48.692;8.948;2022-10-01T04:42:34;2.30;;;2.10;;
72273;SDS011;60208;48.692;8.948;2022-10-01T04:45:02;2.83;;;2.22;;
72273;SDS011;60208;48.692;8.948;2022-10-01T04:47:27;2.25;;;2.05;;
72273;SDS011;60208;48.692;8.948;2022-10-01T04:49:53;2.40;;;2.20;;
72273;SDS011;60208;48.692;8.948;2022-10-01T04:52:18;2.17;;;1.85;;
72273;SDS011;60208;48.692;8.948;2022-10-01T04:54:43;2.45;;;1.88;;
72273;SDS011;60208;48.692;8.948;2022-10-01T04:57:09;3.15;;;1.90;;
72273;SDS011;60208;48.692;8.948;2022-10-01T04:59:34;2.13;;;1.85;;
72273;SDS011;60208;48.692;8.948;2022-10-01T05:01:59;2.30;;;1.95;;
72273;SDS011;60208;48.692;8.948;2022-10-01T05:04:25;2.22;;;2.03;;
72273;SDS011;60208;48.692;8.948;2022-10-01T05:06:51;2.28;;;1.80;;
72273;SDS011;60208;48.692;8.948;2022-10-01T05:09:16;3.72;;;1.92;;
72273;SDS011;60208;48.692;8.948;2022-10-01T05:11:42;4.15;;;1.90;;
72273;SDS011;60208;48.692;8.948;2022-10-01T05:14:07;3.10;;;2.00;;
72273;SDS011;60208;48.692;8.948;2022-10-01T05:16:32;1.90;;;1.80;;
72273;SDS011;60208;48.692;8.948;2022-10-01T05:18:58;2.35;;;2.10;;
72273;SDS011;60208;48.692;8.948;2022-10-01T05:21:23;2.13;;;1.90;;
72273;SDS011;60208;48.692;8.948;2022-10-01T05:23:48;2.78;;;1.90;;
72273;SDS011;60208;48.692;8.948;2022-10-01T05:26:14;2.90;;;1.80;;
72273;SDS011;60208;48.692;8.948;2022-10-01T05:28:39;3.45;;;2.28;;
72273;SDS011;60208;48.692;8.948;2022-10-01T05:31:08;2.45;;;2.10;;
72273;SDS011;60208;48.692;8.948;2022-10-01T05:33:34;2.00;;;1.80;;
72273;SDS011;60208;48.692;8.948;2022-10-01T05:35:59;2.40;;;2.20;;
72273;SDS011;60208;48.692;8.948;2022-10-01T05:38:25;2.65;;;2.13;;
72273;SDS011;60208;48.692;8.948;2022-10-01T05:40:50;3.20;;;2.00;;
72273;SDS011;60208;48.692;8.948;2022-10-01T05:43:15;3.47;;;1.90;;
72273;SDS011;60208;48.692;8.948;2022-10-01T05:45:42;3.17;;;2.15;;
72273;SDS011;60208;48.692;8.948;2022-10-01T05:48:08;3.92;;;2.28;;
72273;SDS011;60208;48.692;8.948;2022-10-01T05:50:35;3.85;;;2.47;;
72273;SDS011;60208;48.692;8.948;2022-10-01T05:53:03;19.27;;;8.60;;
72273;SDS011;60208;48.692;8.948;2022-10-01T05:55:29;8.73;;;5.32;;
72273;SDS011;60208;48.692;8.948;2022-10-01T06:00:31;3.58;;;2.17;;
72273;SDS011;60208;48.692;8.948;2022-10-01T06:02:57;2.17;;;1.85;;
72273;SDS011;60208;48.692;8.948;2022-10-01T06:05:24;1.90;;;1.63;;
72273;SDS011;60208;48.692;8.948;2022-10-01T06:07:50;2.20;;;2.00;;
72273;SDS011;60208;48.692;8.948;2022-10-01T06:10:16;2.70;;;1.90;;
72273;SDS011;60208;48.692;8.948;2022-10-01T06:12:42;2.50;;;2.10;;
72273;SDS011;60208;48.692;8.948;2022-10-01T06:15:08;6.45;;;1.90;;
72273;SDS011;60208;48.692;8.948;2022-10-01T06:17:34;3.08;;;2.00;;
72273;SDS011;60208;48.692;8.948;2022-10-01T06:19:59;2.08;;;1.88;;
72273;SDS011;60208;48.692;8.948;2022-10-01T06:22:25;2.13;;;1.92;;
72273;SDS011;60208;48.692;8.948;2022-10-01T06:24:50;3.05;;;1.80;;
72273;SDS011;60208;48.692;8.948;2022-10-01T06:27:15;2.47;;;1.90;;
72273;SDS011;60208;48.692;8.948;2022-10-01T06:29:42;1.88;;;1.73;;
72273;SDS011;60208;48.692;8.948;2022-10-01T06:32:08;3.67;;;1.77;;
72273;SDS011;60208;48.692;8.948;2022-10-01T06:34:37;2.60;;;1.90;;
72273;SDS011;60208;48.692;8.948;2022-10-01T06:37:02;3.58;;;1.73;;
72273;SDS011;60208;48.692;8.948;2022-10-01T06:39:28;4.75;;;1.73;;
72273;SDS011;60208;48.692;8.948;2022-10-01T06:41:53;3.15;;;1.60;;
72273;SDS011;60208;48.692;8.948;2022-10-01T06:44:18;4.10;;;1.80;;
72273;SDS011;60208;48.692;8.948;2022-10-01T06:46:44;2.08;;;1.80;;
72273;SDS011;60208;48.692;8.948;2022-10-01T06:49:09;1.95;;;1.50;;
72273;SDS011;60208;48.692;8.948;2022-10-01T06:51:35;1.92;;;1.60;;
72273;SDS011;60208;48.692;8.948;2022-10-01T06:54:19;2.30;;;1.42;;
72273;SDS011;60208;48.692;8.948;2022-10-01T06:56:44;1.63;;;1.50;;
72273;SDS011;60208;48.692;8.948;2022-10-01T06:59:10;1.70;;;1.30;;
72273;SDS011;60208;48.692;8.948;2022-10-01T07:01:35;1.85;;;1.40;;
72273;SDS011;60208;48.692;8.948;2022-10-01T07:04:01;2.38;;;1.30;;
72273;SDS011;60208;48.692;8.948;2022-10-01T07:06:26;1.98;;;1.58;;
72273;SDS011;60208;48.692;8.948;2022-10-01T07:08:52;2.30;;;1.70;;
72273;SDS011;60208;48.692;8.948;2022-10-01T07:11:17;2.97;;;1.63;;
72273;SDS011;60208;48.692;8.948;2022-10-01T07:13:43;2.55;;;1.70;;
72273;SDS011;60208;48.692;8.948;2022-10-01T07:16:08;3.25;;;1.90;;
72273;SDS011;60208;48.692;8.948;2022-10-01T07:18:34;2.25;;;1.90;;
72273;SDS011;60208;48.692;8.948;2022-10-01T07:20:59;1.77;;;1.67;;
72273;SDS011;60208;48.692;8.948;2022-10-01T07:23:25;1.92;;;1.60;;
72273;SDS011;60208;48.692;8.948;2022-10-01T07:25:51;2.72;;;2.00;;
72273;SDS011;60208;48.692;8.948;2022-10-01T07:28:18;2.10;;;1.90;;
72273;SDS011;60208;48.692;8.948;2022-10-01T07:30:45;1.70;;;1.60;;
72273;SDS011;60208;48.692;8.948;2022-10-01T07:33:13;3.95;;;1.75;;
72273;SDS011;60208;48.692;8.948;2022-10-01T07:35:41;3.47;;;2.53;;
72273;SDS011;60208;48.692;8.948;2022-10-01T07:38:07;1.52;;;1.42;;
72273;SDS011;60208;48.692;8.948;2022-10-01T07:40:32;3.25;;;2.00;;
72273;SDS011;60208;48.692;8.948;2022-10-01T07:42:58;2.65;;;1.95;;
72273;SDS011;60208;48.692;8.948;2022-10-01T07:45:24;6.25;;;1.90;;
72273;SDS011;60208;48.692;8.948;2022-10-01T07:47:58;3.05;;;2.42;;
72273;SDS011;60208;48.692;8.948;2022-10-01T07:50:25;2.80;;;2.20;;
72273;SDS011;60208;48.692;8.948;2022-10-01T07:52:55;2.25;;;1.90;;
72273;SDS011;60208;48.692;8.948;2022-10-01T07:55:22;3.25;;;2.70;;
72273;SDS011;60208;48.692;8.948;2022-10-01T07:57:54;2.67;;;2.20;;
72273;SDS011;60208;48.692;8.948;2022-10-01T08:00:25;5.28;;;2.38;;
72273;SDS011;60208;48.692;8.948;2022-10-01T08:02:52;4.50;;;2.30;;
72273;SDS011;60208;48.692;8.948;2022-10-01T08:05:20;3.35;;;2.47;;
72273;SDS011;60208;48.692;8.948;2022-10-01T08:07:47;4.03;;;2.78;;
72273;SDS011;60208;48.692;8.948;2022-10-01T08:10:13;3.65;;;2.78;;
72273;SDS011;60208;48.692;8.948;2022-10-01T08:12:39;3.15;;;2.42;;
72273;SDS011;60208;48.692;8.948;2022-10-01T08:15:07;3.70;;;2.45;;
72273;SDS011;60208;48.692;8.948;2022-10-01T08:17:34;3.92;;;3.50;;
72273;SDS011;60208;48.692;8.948;2022-10-01T08:20:01;4.32;;;2.97;;
72273;SDS011;60208;48.692;8.948;2022-10-01T08:22:27;3.35;;;2.72;;
72273;SDS011;60208;48.692;8.948;2022-10-01T08:24:52;3.63;;;2.90;;
72273;SDS011;60208;48.692;8.948;2022-10-01T08:27:18;2.72;;;2.50;;
72273;SDS011;60208;48.692;8.948;2022-10-01T08:29:44;3.22;;;2.70;;
72273;SDS011;60208;48.692;8.948;2022-10-01T08:32:09;3.88;;;3.10;;
72273;SDS011;60208;48.692;8.948;2022-10-01T08:34:35;5.05;;;3.03;;
72273;SDS011;60208;48.692;8.948;2022-10-01T08:37:00;5.35;;;3.00;;
72273;SDS011;60208;48.692;8.948;2022-10-01T08:39:26;3.90;;;2.92;;
72273;SDS011;60208;48.692;8.948;2022-10-01T08:45:03;3.38;;;2.95;;
72273;SDS011;60208;48.692;8.948;2022-10-01T08:47:33;5.28;;;3.28;;
72273;SDS011;60208;48.692;8.948;2022-10-01T08:50:11;3.30;;;3.00;;
72273;SDS011;60208;48.692;8.948;2022-10-01T08:52:42;5.47;;;3.22;;
72273;SDS011;60208;48.692;8.948;2022-10-01T08:55:23;3.90;;;3.55;;
72273;SDS011;60208;48.692;8.948;2022-10-01T08:57:52;3.75;;;2.97;;
72273;SDS011;60208;48.692;8.948;2022-10-01T09:00:20;4.88;;;2.80;;
72273;SDS011;60208;48.692;8.948;2022-10-01T09:02:46;2.85;;;2.25;;
72273;SDS011;60208;48.692;8.948;2022-10-01T09:15:42;5.15;;;4.32;;
72273;SDS011;60208;48.692;8.948;2022-10-01T09:18:28;4.05;;;2.72;;
72273;SDS011;60208;48.692;8.948;2022-10-01T09:21:17;3.22;;;2.50;;
72273;SDS011;60208;48.692;8.948;2022-10-01T09:23:50;1.80;;;1.60;;
72273;SDS011;60208;48.692;8.948;2022-10-01T09:26:22;3.38;;;2.65;;
72273;SDS011;60208;48.692;8.948;2022-10-01T09:28:48;2.22;;;1.70;;
72273;SDS011;60208;48.692;8.948;2022-10-01T09:31:15;1.40;;;1.30;;
72273;SDS011;60208;48.692;8.948;2022-10-01T09:34:03;1.10;;;1.00;;
72273;SDS011;60208;48.692;8.948;2022-10-01T09:39:11;1.20;;;1.08;;
72273;SDS011;60208;48.692;8.948;2022-10-01T09:41:41;1.10;;;1.00;;
72273;SDS011;60208;48.692;8.948;2022-10-01T09:44:17;1.27;;;1.17;;
72273;SDS011;60208;48.692;8.948;2022-10-01T09:46:51;1.35;;;1.25;;
72273;SDS011;60208;48.692;8.948;2022-10-01T09:49:21;0.98;;;0.98;;
72273;SDS011;60208;48.692;8.948;2022-10-01T09:51:56;1.58;;;1.10;;
72273;SDS011;60208;48.692;8.948;2022-10-01T09:54:39;1.42;;;1.23;;
72273;SDS011;60208;48.692;8.948;2022-10-01T09:57:12;2.22;;;1.50;;
72273;SDS011;60208;48.692;8.948;2022-10-01T10:02:24;2.65;;;1.30;;
72273;SDS011;60208;48.692;8.948;2022-10-01T10:05:02;1.45;;;1.23;;
72273;SDS011;60208;48.692;8.948;2022-10-01T10:07:28;1.08;;;0.98;;
72273;SDS011;60208;48.692;8.948;2022-10-01T10:09:56;1.30;;;1.20;;
72273;SDS011;60208;48.692;8.948;2022-10-01T10:12:31;0.80;;;0.80;;
72273;SDS011;60208;48.692;8.948;2022-10-01T10:15:04;2.42;;;1.65;;
72273;SDS011;60208;48.692;8.948;2022-10-01T10:17:31;2.00;;;1.30;;
72273;SDS011;60208;48.692;8.948;2022-10-01T10:20:00;1.38;;;1.20;;
72273;SDS011;60208;48.692;8.948;2022-10-01T10:22:26;2.38;;;1.30;;
72273;SDS011;60208;48.692;8.948;2022-10-01T10:24:52;4.35;;;2.15;;
72273;SDS011;60208;48.692;8.948;2022-10-01T10:27:20;2.05;;;1.40;;
72273;SDS011;60208;48.692;8.948;2022-10-01T10:29:45;2.70;;;1.67;;
72273;SDS011;60208;48.692;8.948;2022-10-01T10:32:18;2.65;;;1.20;;
72273;SDS011;60208;48.692;8.948;2022-10-01T10:34:47;1.95;;;1.50;;
72273;SDS011;60208;48.692;8.948;2022-10-01T10:37:14;2.65;;;1.58;;
72273;SDS011;60208;48.692;8.948;2022-10-01T10:39:41;1.05;;;1.02;;
72273;SDS011;60208;48.692;8.948;2022-10-01T10:42:13;1.60;;;1.20;;
72273;SDS011;60208;48.692;8.948;2022-10-01T10:44:40;1.48;;;1.35;;
72273;SDS011;60208;48.692;8.948;2022-10-01T10:47:09;1.75;;;1.27;;
72273;SDS011;60208;48.692;8.948;2022-10-01T10:49:52;1.42;;;1.33;;
72273;SDS011;60208;48.692;8.948;2022-10-01T10:52:26;1.27;;;1.17;;
72273;SDS011;60208;48.692;8.948;2022-10-01T10:54:54;1.65;;;1.40;;
72273;SDS011;60208;48.692;8.948;2022-10-01T10:57:30;1.30;;;1.20;;
72273;SDS011;60208;48.692;8.948;2022-10-01T10:59:59;0.82;;;0.82;;
72273;SDS011;60208;48.692;8.948;2022-10-01T11:02:52;0.85;;;0.80;;
72273;SDS011;60208;48.692;8.948;2022-10-01T11:05:22;0.90;;;0.90;;
72273;SDS011;60208;48.692;8.948;2022-10-01T11:07:50;0.80;;;0.80;;
72273;SDS011;60208;48.692;8.948;2022-10-01T11:22:32;1.45;;;0.70;;
72273;SDS011;60208;48.692;8.948;2022-10-01T11:35:57;0.45;;;0.45;;
72273;SDS011;60208;48.692;8.948;2022-10-01T11:41:17;0.50;;;0.50;;
72273;SDS011;60208;48.692;8.948;2022-10-01T11:43:56;0.50;;;0.43;;
72273;SDS011;60208;48.692;8.948;2022-10-01T11:51:48;0.70;;;0.70;;
72273;SDS011;60208;48.692;8.948;2022-10-01T11:54:19;1.88;;;1.70;;
72273;SDS011;60208;48.692;8.948;2022-10-01T11:56:49;0.68;;;0.68;;
72273;SDS011;60208;48.692;8.948;2022-10-01T11:59:38;0.90;;;0.73;;
72273;SDS011;60208;48.692;8.948;2022-10-01T12:02:34;0.50;;;0.50;;
72273;SDS011;60208;48.692;8.948;2022-10-01T12:05:09;0.50;;;0.50;;
72273;SDS011;60208;48.692;8.948;2022-10-01T12:07:50;0.70;;;0.70;;
72273;SDS011;60208;48.692;8.948;2022-10-01T12:10:53;0.50;;;0.50;;
72273;SDS011;60208;48.692;8.948;2022-10-01T12:13:26;0.43;;;0.43;;
72273;SDS011;60208;48.692;8.948;2022-10-01T12:15:57;0.50;;;0.50;;
72273;SDS011;60208;48.692;8.948;2022-10-01T12:18:36;0.50;;;0.50;;
72273;SDS011;60208;48.692;8.948;2022-10-01T12:21:32;0.50;;;0.50;;
72273;SDS011;60208;48.692;8.948;2022-10-01T12:24:11;0.60;;;0.60;;
72273;SDS011;60208;48.692;8.948;2022-10-01T12:26:42;0.30;;;0.30;;
72273;SDS011;60208;48.692;8.948;2022-10-01T12:29:17;0.40;;;0.40;;
72273;SDS011;60208;48.692;8.948;2022-10-01T12:32:08;0.40;;;0.40;;
72273;SDS011;60208;48.692;8.948;2022-10-01T12:51:06;0.88;;;0.50;;
72273;SDS011;60208;48.692;8.948;2022-10-01T12:53:37;0.47;;;0.47;;
72273;SDS011;60208;48.692;8.948;2022-10-01T12:56:14;1.25;;;0.50;;
72273;SDS011;60208;48.692;8.948;2022-10-01T13:14:22;0.30;;;0.30;;
72273;SDS011;60208;48.692;8.948;2022-10-01T13:30:04;0.43;;;0.40;;
72273;SDS011;60208;48.692;8.948;2022-10-01T13:32:48;0.65;;;0.40;;
72273;SDS011;60208;48.692;8.948;2022-10-01T13:35:23;0.88;;;0.52;;
72273;SDS011;60208;48.692;8.948;2022-10-01T13:37:49;1.45;;;0.47;;
72273;SDS011;60208;48.692;8.948;2022-10-01T13:40:31;0.75;;;0.43;;
72273;SDS011;60208;48.692;8.948;2022-10-01T13:42:59;0.80;;;0.50;;
72273;SDS011;60208;48.692;8.948;2022-10-01T13:45:27;0.98;;;0.43;;
72273;SDS011;60208;48.692;8.948;2022-10-01T13:48:11;0.60;;;0.50;;
72273;SDS011;60208;48.692;8.948;2022-10-01T13:53:19;0.88;;;0.35;;
72273;SDS011;60208;48.692;8.948;2022-10-01T13:55:47;0.57;;;0.47;;
72273;SDS011;60208;48.692;8.948;2022-10-01T14:00:54;0.30;;;0.30;;
72273;SDS011;60208;48.692;8.948;2022-10-01T14:03:24;1.60;;;0.40;;
72273;SDS011;60208;48.692;8.948;2022-10-01T14:06:04;0.57;;;0.45;;
72273;SDS011;60208;48.692;8.948;2022-10-01T14:08:39;1.27;;;0.50;;
72273;SDS011;60208;48.692;8.948;2022-10-01T14:11:13;1.15;;;0.45;;
72273;SDS011;60208;48.692;8.948;2022-10-01T14:14:08;34.58;;;21.58;;
72273;SDS011;60208;48.692;8.948;2022-10-01T14:16:54;20.60;;;14.95;;
72273;SDS011;60208;48.692;8.948;2022-10-01T14:19:21;1.80;;;1.42;;
72273;SDS011;60208;48.692;8.948;2022-10-01T14:21:54;2.92;;;2.15;;
72273;SDS011;60208;48.692;8.948;2022-10-01T14:26:58;2.15;;;1.67;;
72273;SDS011;60208;48.692;8.948;2022-10-01T14:32:16;0.70;;;0.40;;
72273;SDS011;60208;48.692;8.948;2022-10-01T14:37:14;0.30;;;0.25;;
72273;SDS011;60208;48.692;8.948;2022-10-01T14:39:40;0.40;;;0.40;;
72273;SDS011;60208;48.692;8.948;2022-10-01T14:42:07;1.42;;;0.45;;
72273;SDS011;60208;48.692;8.948;2022-10-01T14:44:39;0.40;;;0.28;;
72273;SDS011;60208;48.692;8.948;2022-10-01T14:47:22;1.05;;;0.32;;
72273;SDS011;60208;48.692;8.948;2022-10-01T14:49:48;1.38;;;0.43;;
72273;SDS011;60208;48.692;8.948;2022-10-01T14:52:27;4.53;;;0.73;;
72273;SDS011;60208;48.692;8.948;2022-10-01T14:55:07;0.52;;;0.25;;
72273;SDS011;60208;48.692;8.948;2022-10-01T15:00:12;0.82;;;0.50;;
72273;SDS011;60208;48.692;8.948;2022-10-01T15:02:44;0.40;;;0.30;;
72273;SDS011;60208;48.692;8.948;2022-10-01T15:06:00;0.68;;;0.40;;
72273;SDS011;60208;48.692;8.948;2022-10-01T15:08:13;0.50;;;0.30;;
72273;SDS011;60208;48.692;8.948;2022-10-01T15:10:50;0.30;;;0.30;;
72273;SDS011;60208;48.692;8.948;2022-10-01T15:13:27;0.40;;;0.30;;
72273;SDS011;60208;48.692;8.948;2022-10-01T15:15:54;0.32;;;0.30;;
72273;SDS011;60208;48.692;8.948;2022-10-01T15:18:20;0.65;;;0.30;;
72273;SDS011;60208;48.692;8.948;2022-10-01T15:20:53;1.20;;;0.45;;
72273;SDS011;60208;48.692;8.948;2022-10-01T15:23:32;1.50;;;0.30;;
72273;SDS011;60208;48.692;8.948;2022-10-01T15:26:00;1.55;;;0.32;;
72273;SDS011;60208;48.692;8.948;2022-10-01T15:28:28;0.52;;;0.38;;
72273;SDS011;60208;48.692;8.948;2022-10-01T15:31:00;0.63;;;0.40;;
72273;SDS011;60208;48.692;8.948;2022-10-01T15:33:30;1.10;;;0.40;;
72273;SDS011;60208;48.692;8.948;2022-10-01T15:35:57;1.90;;;0.80;;
72273;SDS011;60208;48.692;8.948;2022-10-01T15:38:24;2.67;;;0.40;;
72273;SDS011;60208;48.692;8.948;2022-10-01T15:40:51;0.30;;;0.30;;
72273;SDS011;60208;48.692;8.948;2022-10-01T15:43:32;0.80;;;0.40;;
72273;SDS011;60208;48.692;8.948;2022-10-01T15:48:31;0.45;;;0.30;;
72273;SDS011;60208;48.692;8.948;2022-10-01T15:51:01;1.08;;;0.50;;
72273;SDS011;60208;48.692;8.948;2022-10-01T15:53:28;1.90;;;0.40;;
72273;SDS011;60208;48.692;8.948;2022-10-01T15:55:55;0.65;;;0.40;;
72273;SDS011;60208;48.692;8.948;2022-10-01T15:58:23;1.83;;;0.32;;
72273;SDS011;60208;48.692;8.948;2022-10-01T16:00:56;1.50;;;0.43;;
72273;SDS011;60208;48.692;8.948;2022-10-01T16:03:24;0.98;;;0.40;;
72273;SDS011;60208;48.692;8.948;2022-10-01T16:05:52;0.47;;;0.47;;
72273;SDS011;60208;48.692;8.948;2022-10-01T16:08:21;0.52;;;0.40;;
72273;SDS011;60208;48.692;8.948;2022-10-01T16:11:06;0.52;;;0.40;;
72273;SDS011;60208;48.692;8.948;2022-10-01T16:13:40;0.60;;;0.55;;
72273;SDS011;60208;48.692;8.948;2022-10-01T16:18:50;1.42;;;0.40;;
72273;SDS011;60208;48.692;8.948;2022-10-01T16:21:39;4.10;;;0.68;;
72273;SDS011;60208;48.692;8.948;2022-10-01T16:24:18;0.43;;;0.40;;
72273;SDS011;60208;48.692;8.948;2022-10-01T16:26:51;0.75;;;0.57;;
72273;SDS011;60208;48.692;8.948;2022-10-01T16:29:23;0.50;;;0.43;;
72273;SDS011;60208;48.692;8.948;2022-10-01T16:31:49;1.63;;;0.50;;
72273;SDS011;60208;48.692;8.948;2022-10-01T16:34:16;0.95;;;0.50;;
72273;SDS011;60208;48.692;8.948;2022-10-01T16:36:43;0.93;;;0.47;;
72273;SDS011;60208;48.692;8.948;2022-10-01T16:39:08;2.55;;;0.57;;
72273;SDS011;60208;48.692;8.948;2022-10-01T16:41:36;0.70;;;0.60;;
72273;SDS011;60208;48.692;8.948;2022-10-01T16:44:02;0.75;;;0.50;;
72273;SDS011;60208;48.692;8.948;2022-10-01T16:46:29;1.10;;;0.30;;
72273;SDS011;60208;48.692;8.948;2022-10-01T16:48:54;1.58;;;0.57;;
72273;SDS011;60208;48.692;8.948;2022-10-01T16:51:20;0.82;;;0.47;;
72273;SDS011;60208;48.692;8.948;2022-10-01T16:53:46;2.22;;;0.60;;
72273;SDS011;60208;48.692;8.948;2022-10-01T16:56:12;1.02;;;0.70;;
72273;SDS011;60208;48.692;8.948;2022-10-01T16:58:38;2.85;;;0.60;;
72273;SDS011;60208;48.692;8.948;2022-10-01T17:01:04;1.95;;;0.68;;
72273;SDS011;60208;48.692;8.948;2022-10-01T17:03:32;0.57;;;0.50;;
72273;SDS011;60208;48.692;8.948;2022-10-01T17:05:58;0.82;;;0.52;;
72273;SDS011;60208;48.692;8.948;2022-10-01T17:08:23;1.83;;;0.73;;
72273;SDS011;60208;48.692;8.948;2022-10-01T17:10:50;1.25;;;0.50;;
72273;SDS011;60208;48.692;8.948;2022-10-01T17:13:22;1.85;;;0.50;;
72273;SDS011;60208;48.692;8.948;2022-10-01T17:15:48;0.57;;;0.50;;